createdAt,value
2023-01-25T08:46:40.204Z,936
2023-01-25T08:47:39.729Z,968
2023-01-25T08:48:39.735Z,1020
2023-01-25T08:49:40.859Z,1084
2023-01-25T08:50:39.722Z,1116
2023-01-25T08:51:39.821Z,1124
2023-01-25T08:52:40.569Z,1112
2023-01-25T08:53:40.051Z,1080
2023-01-25T08:54:40.735Z,1012
2023-01-25T08:55:39.968Z,968
2023-01-25T08:56:40.629Z,1004
2023-01-25T08:57:40.287Z,984
2023-01-25T08:58:39.964Z,992
2023-01-25T08:59:39.726Z,1020
2023-01-25T09:00:41.130Z,1032
2023-01-25T09:01:39.730Z,1036
2023-01-25T09:02:40.686Z,972
2023-01-25T09:03:40.845Z,996
2023-01-25T09:04:40.180Z,1052
2023-01-25T09:05:40.200Z,1128
2023-01-25T09:06:40.047Z,1200
2023-01-25T09:07:40.970Z,1244
2023-01-25T09:08:41.549Z,1304
2023-01-25T09:09:39.995Z,1356
2023-01-25T09:10:40.953Z,1388
2023-01-25T09:11:39.599Z,1388
2023-01-25T09:12:39.984Z,1408
2023-01-25T09:13:40.363Z,1436
2023-01-25T09:14:39.745Z,1416
2023-01-25T09:15:39.505Z,1320
2023-01-25T09:16:40.144Z,1308
2023-01-25T09:17:39.877Z,1344
2023-01-25T09:18:40.247Z,1384
2023-01-25T09:19:41.438Z,1380
2023-01-25T09:20:41.899Z,1364
2023-01-25T09:21:40.240Z,1340
2023-01-25T09:22:40.012Z,1304
2023-01-25T09:24:10.470Z,1252
2023-01-25T09:24:43.438Z,1248
2023-01-25T09:25:39.772Z,1228
2023-01-25T09:26:39.923Z,1220
2023-01-25T09:27:41.618Z,1268
2023-01-25T09:28:39.943Z,1356
2023-01-25T09:29:53.938Z,1416
2023-01-25T09:31:24.608Z,1468
2023-01-25T09:31:41.373Z,1472
2023-01-25T09:32:41.657Z,1496
2023-01-25T09:33:40.313Z,1496
2023-01-25T09:34:40.820Z,1504
2023-01-25T09:35:41.485Z,1532
2023-01-25T09:36:40.065Z,1568
2023-01-25T09:37:40.442Z,1608
2023-01-25T09:38:40.146Z,1608
2023-01-25T09:39:40.684Z,1616
2023-01-25T09:40:40.597Z,1616
2023-01-25T09:41:39.806Z,1564
2023-01-25T09:42:40.628Z,1560
2023-01-25T09:43:40.773Z,1620
2023-01-25T09:44:40.053Z,1696
2023-01-25T09:45:41.314Z,1784
2023-01-25T09:46:39.928Z,1864
2023-01-25T09:47:39.852Z,1916
2023-01-25T09:48:40.570Z,1956
2023-01-25T09:49:40.053Z,1964
2023-01-25T09:50:40.469Z,1980
2023-01-25T09:51:40.278Z,2044
2023-01-25T09:52:39.900Z,2036
2023-01-25T09:53:40.923Z,1964
2023-01-25T09:54:52.683Z,1660
2023-01-25T09:55:40.886Z,1772
2023-01-25T09:56:40.470Z,1968
2023-01-25T09:57:41.370Z,1992
2023-01-25T09:58:40.632Z,1616
2023-01-25T09:59:41.484Z,1652
2023-01-25T10:00:40.130Z,1804
2023-01-25T10:01:47.957Z,1984
2023-01-25T10:02:41.117Z,2108
2023-01-25T10:03:40.915Z,2200
2023-01-25T10:04:41.117Z,2212
2023-01-25T10:05:40.189Z,2252
2023-01-25T10:06:48.707Z,2252
2023-01-25T10:07:40.606Z,2348
2023-01-25T10:08:40.405Z,2388
2023-01-25T10:09:40.003Z,2360
2023-01-25T10:10:39.933Z,2352
2023-01-25T10:11:39.629Z,2348
2023-01-25T10:12:40.913Z,2388
2023-01-25T10:13:39.895Z,2388
2023-01-25T10:14:41.136Z,2356
2023-01-25T10:15:40.733Z,2428
2023-01-25T10:16:40.990Z,2488
2023-01-25T10:17:39.965Z,2680
2023-01-25T10:18:39.627Z,2780
2023-01-25T10:19:39.909Z,2860
2023-01-25T10:20:40.244Z,2896
2023-01-25T10:21:39.414Z,2876
2023-01-25T10:22:40.486Z,2708
2023-01-25T10:23:40.506Z,2668
2023-01-25T10:24:40.151Z,2548
2023-01-25T10:25:41.152Z,2516
2023-01-25T10:26:40.280Z,2568
2023-01-25T10:27:40.236Z,2508
2023-01-25T10:28:40.184Z,2496
2023-01-25T10:29:40.643Z,2368
2023-01-25T10:30:40.992Z,2248
2023-01-25T10:31:40.544Z,2160
2023-01-25T10:32:58.068Z,2020
2023-01-25T10:33:45.143Z,1980
2023-01-25T10:35:00.234Z,1932
2023-01-25T10:35:51.720Z,1924
2023-01-25T10:36:40.111Z,2084
2023-01-25T10:37:39.990Z,2296
2023-01-25T10:38:40.957Z,2356
2023-01-25T10:39:40.189Z,2432
2023-01-25T10:40:39.995Z,2588
2023-01-25T10:41:40.725Z,2472
2023-01-25T10:42:41.015Z,2356
2023-01-25T10:43:39.920Z,2468
2023-01-25T10:44:39.959Z,2536
2023-01-25T10:45:40.434Z,2596
2023-01-25T10:46:40.669Z,2472
2023-01-25T10:47:40.052Z,2524
2023-01-25T10:48:41.367Z,2488
2023-01-25T10:49:41.395Z,2332
2023-01-25T10:50:40.282Z,2248
2023-01-25T10:51:41.045Z,2168
2023-01-25T10:52:40.446Z,2076
2023-01-25T10:53:40.626Z,1964
2023-01-25T10:54:41.862Z,2024
2023-01-25T10:55:40.030Z,2100
2023-01-25T10:56:40.374Z,2128
2023-01-25T10:57:40.355Z,2088
2023-01-25T10:58:40.035Z,2080
2023-01-25T10:59:40.564Z,2136
2023-01-25T11:00:40.234Z,2192
2023-01-25T11:01:40.219Z,2360
2023-01-25T11:02:40.831Z,2388
2023-01-25T11:03:40.344Z,2364
2023-01-25T11:04:40.529Z,2396
2023-01-25T11:05:40.593Z,2320
2023-01-25T11:06:40.475Z,2284
2023-01-25T11:07:41.632Z,2380
2023-01-25T11:08:40.063Z,2380
2023-01-25T11:09:41.150Z,2492
2023-01-25T11:10:41.274Z,2576
2023-01-25T11:11:43.001Z,2524
2023-01-25T11:12:40.789Z,2520
2023-01-25T11:13:40.335Z,2592
2023-01-25T11:14:40.228Z,2468
2023-01-25T11:15:41.069Z,2492
2023-01-25T11:16:40.370Z,2404
2023-01-25T11:17:39.786Z,2436
2023-01-25T11:18:41.514Z,2540
2023-01-25T11:19:40.534Z,2556
2023-01-25T11:20:40.967Z,2560
2023-01-25T11:21:40.332Z,2560
2023-01-25T11:22:40.541Z,2496
2023-01-25T11:23:40.719Z,2480
2023-01-25T11:24:40.820Z,2444
2023-01-25T11:25:40.130Z,2388
2023-01-25T11:26:45.166Z,2452
2023-01-25T11:27:41.289Z,2400
2023-01-25T11:28:39.880Z,2276
2023-01-25T11:29:40.254Z,2336
2023-01-25T11:30:40.459Z,2392
2023-01-25T11:31:42.023Z,2408
2023-01-25T11:32:40.182Z,2380
2023-01-25T11:33:40.418Z,2412
2023-01-25T11:34:43.321Z,2440
2023-01-25T11:35:41.260Z,2508
2023-01-25T11:36:41.138Z,2528
2023-01-25T11:37:40.138Z,2504
2023-01-25T11:38:40.089Z,2456
2023-01-25T11:39:40.645Z,2400
2023-01-25T11:40:40.397Z,2248
2023-01-25T11:41:42.531Z,2252
2023-01-25T11:42:41.848Z,2364
2023-01-25T11:43:40.774Z,2432
2023-01-25T11:44:40.854Z,2564
2023-01-25T11:45:41.200Z,2600
2023-01-25T11:46:43.093Z,2608
2023-01-25T11:47:41.066Z,2764
2023-01-25T11:48:40.160Z,2848
2023-01-25T11:49:40.388Z,2808
2023-01-25T11:50:41.192Z,2728
2023-01-25T11:51:40.555Z,2672
2023-01-25T11:52:41.187Z,2580
2023-01-25T11:53:40.470Z,2676
2023-01-25T11:54:40.177Z,2524
2023-01-25T11:55:40.717Z,2392
2023-01-25T11:56:41.692Z,2288
2023-01-25T11:57:42.438Z,2296
2023-01-25T11:58:42.004Z,2292
2023-01-25T11:59:40.211Z,2116
2023-01-25T12:00:41.063Z,1972
2023-01-25T12:01:40.257Z,1916
2023-01-25T12:02:41.059Z,1992
2023-01-25T12:03:40.824Z,2084
2023-01-25T12:04:40.323Z,2168
2023-01-25T12:05:40.520Z,2084
2023-01-25T12:06:41.491Z,2068
2023-01-25T12:07:40.993Z,2200
2023-01-25T12:08:41.570Z,2224
2023-01-25T12:09:41.272Z,2340
2023-01-25T12:10:39.949Z,2332
2023-01-25T12:11:39.967Z,2308
2023-01-25T12:12:40.381Z,2280
2023-01-25T12:13:40.829Z,2440
2023-01-25T12:14:41.044Z,2504
2023-01-25T12:15:40.883Z,2440
2023-01-25T12:16:41.567Z,2244
2023-01-25T12:17:40.895Z,2168
2023-01-25T12:18:41.282Z,2128
2023-01-25T12:19:40.512Z,2064
2023-01-25T12:20:40.889Z,2124
2023-01-25T12:21:41.234Z,2116
2023-01-25T12:22:40.230Z,2164
2023-01-25T12:23:40.502Z,2184
2023-01-25T12:24:40.690Z,2156
2023-01-25T12:25:40.931Z,1936
2023-01-25T12:26:41.499Z,1880
2023-01-25T12:27:40.042Z,1916
2023-01-25T12:28:40.009Z,1872
2023-01-25T12:29:41.402Z,1876
2023-01-25T12:30:41.072Z,1824
2023-01-25T12:31:40.490Z,1760
2023-01-25T12:32:43.208Z,1780
2023-01-25T12:33:40.246Z,1776
2023-01-25T12:34:40.335Z,1968
2023-01-25T12:35:40.306Z,2248
2023-01-25T12:36:40.609Z,2424
2023-01-25T12:37:40.982Z,2476
2023-01-25T12:38:40.529Z,2608
2023-01-25T12:39:40.292Z,2560
2023-01-25T12:40:40.982Z,2564
2023-01-25T12:41:40.562Z,2504
2023-01-25T12:42:40.999Z,2816
2023-01-25T12:43:40.527Z,2748
2023-01-25T12:44:40.586Z,2724
2023-01-25T12:45:41.063Z,2556
2023-01-25T12:46:41.543Z,2472
2023-01-25T12:47:40.717Z,2312
2023-01-25T12:48:41.550Z,2284
2023-01-25T12:49:40.783Z,2280
2023-01-25T12:50:40.762Z,2344
2023-01-25T12:51:41.041Z,2400
2023-01-25T12:52:40.579Z,2340
2023-01-25T12:53:42.782Z,2296
2023-01-25T12:54:40.316Z,2280
2023-01-25T12:55:40.584Z,2200
2023-01-25T12:56:41.172Z,2220
2023-01-25T12:57:40.663Z,2200
2023-01-25T12:58:45.109Z,2168
2023-01-25T12:59:41.086Z,2144
2023-01-25T13:00:41.159Z,2160
2023-01-25T13:01:40.933Z,2172
2023-01-25T13:02:40.908Z,2088
2023-01-25T13:03:40.843Z,1900
2023-01-25T13:04:40.719Z,1844
2023-01-25T13:05:40.366Z,1804
2023-01-25T13:06:41.162Z,1804
2023-01-25T13:07:40.710Z,1804
2023-01-25T13:08:40.932Z,1864
2023-01-25T13:09:41.323Z,1864
2023-01-25T13:10:40.978Z,1880
2023-01-25T13:11:40.755Z,1912
2023-01-25T13:12:40.721Z,1848
2023-01-25T13:13:40.116Z,1816
2023-01-25T13:14:40.794Z,1692
2023-01-25T13:15:41.586Z,1616
2023-01-25T13:16:41.090Z,1676
2023-01-25T13:17:45.402Z,1692
2023-01-25T13:18:40.690Z,1744
2023-01-25T13:19:40.709Z,1824
2023-01-25T13:20:40.815Z,1884
2023-01-25T13:21:41.284Z,1892
2023-01-25T13:22:42.637Z,1824
2023-01-25T13:23:40.960Z,1800
2023-01-25T13:24:40.404Z,1832
2023-01-25T13:25:41.907Z,1796
2023-01-25T13:26:41.031Z,1868
2023-01-25T13:27:40.390Z,1872
2023-01-25T13:28:41.588Z,1852
2023-01-25T13:29:42.502Z,1852
2023-01-25T13:30:41.249Z,1844
2023-01-25T13:32:01.898Z,1824
2023-01-25T13:32:40.683Z,1860
2023-01-25T13:33:41.504Z,1768
2023-01-25T13:34:40.825Z,1828
2023-01-25T13:35:41.437Z,1916
2023-01-25T13:36:41.331Z,1888
2023-01-25T13:37:40.694Z,1796
2023-01-25T13:38:40.999Z,1804
2023-01-25T13:39:40.891Z,1772
2023-01-25T13:40:40.212Z,1804
2023-01-25T13:41:40.833Z,1824
2023-01-25T13:42:40.280Z,1884
2023-01-25T13:43:40.689Z,1920
2023-01-25T13:44:41.296Z,1872
2023-01-25T13:45:41.417Z,1804
2023-01-25T13:46:40.542Z,1776
2023-01-25T13:47:41.791Z,1744
2023-01-25T13:48:43.787Z,1836
2023-01-25T13:49:43.026Z,1840
2023-01-25T13:50:41.002Z,1836
2023-01-25T13:51:41.078Z,1880
2023-01-25T13:52:42.422Z,1976
2023-01-25T13:53:40.216Z,2008
2023-01-25T13:54:42.751Z,1984
2023-01-25T13:55:40.752Z,1928
2023-01-25T13:56:40.789Z,1892
2023-01-25T13:57:41.213Z,1832
2023-01-25T13:58:40.854Z,1744
2023-01-25T13:59:40.884Z,1644
2023-01-25T14:00:40.382Z,1560
2023-01-25T14:01:40.640Z,1452
2023-01-25T14:02:41.182Z,1404
2023-01-25T14:03:40.908Z,1436
2023-01-25T14:04:40.608Z,1500
2023-01-25T14:05:41.133Z,1552
2023-01-25T14:06:40.946Z,1600
2023-01-25T14:07:41.590Z,1608
2023-01-25T14:08:41.288Z,1596
2023-01-25T14:09:41.021Z,1564
2023-01-25T14:10:41.333Z,1532
2023-01-25T14:11:41.406Z,1504
2023-01-25T14:12:41.045Z,1536
2023-01-25T14:13:41.013Z,1568
2023-01-25T14:14:40.585Z,1560
2023-01-25T14:15:41.148Z,1484
2023-01-25T14:16:41.060Z,1384
2023-01-25T14:17:41.189Z,1336
2023-01-25T14:18:41.138Z,1288
2023-01-25T14:19:41.568Z,1268
2023-01-25T14:20:40.698Z,1240
2023-01-25T14:21:40.685Z,1228
2023-01-25T14:22:40.925Z,1200
2023-01-25T14:23:40.414Z,1148
2023-01-25T14:24:40.578Z,1100
2023-01-25T14:25:40.907Z,1064
2023-01-25T14:26:40.904Z,1072
2023-01-25T14:27:41.472Z,1076
2023-01-25T14:28:41.115Z,1028
2023-01-25T14:29:42.220Z,964
2023-01-25T14:30:40.792Z,936
2023-01-25T14:31:41.667Z,936
2023-01-25T14:32:40.618Z,944
2023-01-25T14:33:40.862Z,992
2023-01-25T14:34:41.335Z,1004
2023-01-25T14:36:26.999Z,948
2023-01-25T14:36:41.184Z,944
2023-01-25T14:37:41.357Z,900
2023-01-25T14:38:40.661Z,880
2023-01-25T14:39:40.866Z,872
2023-01-25T14:40:40.599Z,880
2023-01-25T14:41:48.701Z,880
2023-01-25T14:42:41.016Z,868
2023-01-25T14:43:40.359Z,852
2023-01-25T14:44:41.388Z,800
2023-01-25T14:45:40.546Z,764
2023-01-25T14:46:40.740Z,736
2023-01-25T14:47:48.001Z,700
2023-01-25T14:48:40.935Z,652
2023-01-25T14:49:40.726Z,616
2023-01-25T14:50:41.366Z,588
2023-01-25T14:51:43.906Z,580
2023-01-25T14:52:41.218Z,576
2023-01-25T14:53:41.531Z,572
2023-01-25T14:54:41.257Z,572
2023-01-25T14:55:41.730Z,584
2023-01-25T14:56:40.315Z,584
2023-01-25T14:57:41.681Z,576
2023-01-25T14:58:47.946Z,560
2023-01-25T14:59:40.453Z,532
2023-01-25T15:00:42.260Z,508
2023-01-25T15:01:41.335Z,480
2023-01-25T15:02:41.002Z,452
2023-01-25T15:03:41.275Z,432
2023-01-25T15:04:43.000Z,412
2023-01-25T15:05:40.566Z,396
2023-01-25T15:06:41.948Z,396
2023-01-25T15:07:40.691Z,384
2023-01-25T15:08:40.962Z,376
2023-01-25T15:09:41.530Z,364
2023-01-25T15:10:40.924Z,352
2023-01-25T15:11:41.647Z,336
2023-01-25T15:12:41.835Z,316
2023-01-25T15:13:41.363Z,300
2023-01-25T15:14:43.057Z,288
2023-01-25T15:15:40.722Z,280
2023-01-25T15:16:42.754Z,272
2023-01-25T15:17:41.002Z,268
2023-01-25T15:18:41.508Z,256
2023-01-25T15:19:41.096Z,244
2023-01-25T15:20:40.281Z,240
2023-01-25T15:21:40.980Z,232
2023-01-25T15:22:42.229Z,228
2023-01-25T15:23:40.840Z,216
2023-01-25T15:24:57.329Z,204
2023-01-25T15:25:40.923Z,196
2023-01-25T15:26:41.312Z,184
2023-01-25T15:27:41.812Z,168
2023-01-25T15:28:41.604Z,152
2023-01-25T15:29:41.191Z,136
2023-01-25T15:30:42.208Z,124
2023-01-25T15:31:41.390Z,116
2023-01-25T15:32:41.596Z,112
2023-01-25T15:33:41.476Z,100
2023-01-25T15:34:41.595Z,96
2023-01-25T15:35:42.037Z,88
2023-01-25T15:36:40.905Z,88
2023-01-25T15:37:41.659Z,80
2023-01-25T15:38:41.491Z,72
2023-01-25T15:39:41.139Z,72
2023-01-25T15:40:42.363Z,68
2023-01-25T15:41:40.930Z,68
2023-01-25T15:42:41.638Z,68
2023-01-25T15:43:41.008Z,64
2023-01-25T15:44:42.445Z,60
2023-01-25T15:45:41.642Z,56
2023-01-25T15:46:41.443Z,52
2023-01-25T15:47:41.054Z,52
2023-01-25T15:48:41.460Z,44
2023-01-25T15:49:41.034Z,40
2023-01-25T15:50:41.695Z,36
2023-01-25T15:51:43.353Z,36
2023-01-25T15:52:41.649Z,32
2023-01-25T15:53:41.945Z,24
2023-01-25T15:54:52.387Z,24
2023-01-25T15:55:41.151Z,24
2023-01-25T15:56:41.767Z,16
2023-01-25T15:57:42.116Z,16
2023-01-25T15:58:41.557Z,12
2023-01-25T15:59:41.377Z,12
2023-01-25T16:00:41.273Z,12
2023-01-25T16:01:42.196Z,8
2023-01-25T16:02:41.946Z,8
2023-01-25T16:03:40.784Z,8
2023-01-25T16:04:41.302Z,8
2023-01-25T16:05:41.030Z,8
2023-01-25T16:06:41.433Z,4
2023-01-25T16:07:41.107Z,4
2023-01-25T16:08:40.856Z,4
2023-01-25T16:09:41.475Z,4
2023-01-25T16:10:40.754Z,4
2023-01-25T16:11:40.875Z,0
2023-01-25T16:12:42.897Z,4
2023-01-25T16:13:40.979Z,0
2023-01-25T16:14:42.456Z,0
2023-01-25T16:15:41.562Z,0
2023-01-25T16:16:41.600Z,4
2023-01-25T16:17:41.692Z,0
2023-01-25T16:18:41.208Z,0
2023-01-25T16:19:41.543Z,0
2023-01-25T16:20:41.917Z,0
2023-01-25T16:21:41.011Z,0
2023-01-25T16:22:41.511Z,0
2023-01-25T16:23:41.428Z,0
2023-01-25T16:24:43.868Z,0
2023-01-25T16:25:40.744Z,0
2023-01-25T16:26:40.893Z,0
2023-01-25T16:27:41.117Z,0
2023-01-25T16:28:42.980Z,0
2023-01-25T16:29:41.361Z,0
2023-01-25T16:30:41.780Z,0
2023-01-25T16:31:42.069Z,0
2023-01-25T16:32:41.288Z,0
2023-01-25T16:33:41.841Z,0
2023-01-25T16:34:41.703Z,0
2023-01-25T16:35:41.341Z,0
2023-01-25T16:36:44.808Z,0
2023-01-25T16:37:41.227Z,0
2023-01-25T16:38:41.773Z,0
2023-01-25T16:39:40.911Z,0
2023-01-25T16:40:42.340Z,0
2023-01-25T16:41:41.230Z,0
2023-01-25T16:42:40.836Z,0
2023-01-25T16:43:50.006Z,0
2023-01-25T16:44:41.914Z,0
2023-01-25T16:45:40.886Z,0
2023-01-25T16:46:41.517Z,0
2023-01-25T16:47:41.201Z,0
2023-01-25T16:48:42.033Z,0
2023-01-25T16:49:41.663Z,0
2023-01-25T16:50:41.115Z,0
2023-01-25T16:51:40.885Z,0
2023-01-25T16:52:43.253Z,0
2023-01-25T16:53:41.198Z,0
2023-01-25T16:54:41.175Z,0
2023-01-25T16:55:41.648Z,0
2023-01-25T16:56:41.441Z,0
2023-01-25T16:57:41.809Z,0
2023-01-25T16:58:41.335Z,0
2023-01-25T16:59:41.167Z,0
2023-01-25T17:00:41.874Z,0
2023-01-25T17:01:41.758Z,0
2023-01-25T17:02:59.904Z,0
2023-01-25T17:03:41.748Z,0
2023-01-25T17:04:40.932Z,0
2023-01-25T17:05:41.696Z,0
2023-01-25T17:06:41.872Z,0
2023-01-25T17:07:40.761Z,0
2023-01-25T17:08:42.255Z,0
2023-01-25T17:09:40.920Z,0
2023-01-25T17:10:41.389Z,0
2023-01-25T17:11:41.766Z,0
2023-01-25T17:12:41.210Z,0
2023-01-25T17:13:41.427Z,0
2023-01-25T17:14:41.472Z,0
2023-01-25T17:15:42.072Z,0
2023-01-25T17:16:41.658Z,0
2023-01-25T17:17:40.801Z,0
2023-01-25T17:18:42.162Z,0
2023-01-25T17:19:41.778Z,0
2023-01-25T17:20:41.694Z,0
2023-01-25T17:21:41.191Z,0
2023-01-25T17:22:41.434Z,0
2023-01-25T17:23:41.729Z,0
2023-01-25T17:24:42.588Z,0
2023-01-25T17:25:42.779Z,0
2023-01-25T17:26:42.042Z,0
2023-01-25T17:27:41.537Z,0
2023-01-25T17:28:41.486Z,0
2023-01-25T17:29:41.254Z,0
2023-01-25T17:30:42.044Z,0
2023-01-25T17:31:41.659Z,0
2023-01-25T17:32:42.832Z,0
2023-01-25T17:33:41.014Z,0
2023-01-25T17:34:41.988Z,0
2023-01-25T17:35:41.339Z,0
2023-01-25T17:36:41.834Z,0
2023-01-25T17:37:41.746Z,0
2023-01-25T17:38:41.756Z,0
2023-01-25T17:39:41.595Z,0
2023-01-25T17:40:42.233Z,0
2023-01-25T17:41:41.035Z,0
2023-01-25T17:42:41.424Z,0
2023-01-25T17:43:41.676Z,0
2023-01-25T17:44:41.516Z,0
2023-01-25T17:45:40.998Z,0
2023-01-25T17:46:41.707Z,0
2023-01-25T17:47:42.071Z,0
2023-01-25T17:48:41.835Z,0
2023-01-25T17:49:41.303Z,0
2023-01-25T17:50:42.009Z,0
2023-01-25T17:51:41.437Z,0
2023-01-25T17:52:42.007Z,0
2023-01-25T17:53:42.364Z,0
2023-01-25T17:54:41.476Z,0
2023-01-25T17:55:42.128Z,0
2023-01-25T17:56:44.265Z,0
2023-01-25T17:57:40.490Z,0
2023-01-25T17:58:41.715Z,0
2023-01-25T17:59:40.778Z,0
2023-01-25T18:00:42.388Z,0
2023-01-25T18:01:42.127Z,0
2023-01-25T18:02:41.852Z,0
2023-01-25T18:03:43.528Z,0
2023-01-25T18:04:41.296Z,0
2023-01-25T18:05:41.361Z,0
2023-01-25T18:06:41.915Z,0
2023-01-25T18:07:41.180Z,0
2023-01-25T18:08:41.846Z,0
2023-01-25T18:09:41.481Z,0
2023-01-25T18:10:41.372Z,0
2023-01-25T18:11:41.632Z,0
2023-01-25T18:12:41.799Z,0
2023-01-25T18:13:40.545Z,0
2023-01-25T18:14:40.778Z,0
2023-01-25T18:15:41.428Z,0
2023-01-25T18:16:42.003Z,0
2023-01-25T18:17:42.445Z,0
2023-01-25T18:18:41.648Z,0
2023-01-25T18:19:42.121Z,0
2023-01-25T18:20:41.638Z,0
2023-01-25T18:21:41.354Z,0
2023-01-25T18:22:43.540Z,0
2023-01-25T18:23:41.423Z,0
2023-01-25T18:24:42.174Z,0
2023-01-25T18:25:41.751Z,0
2023-01-25T18:26:41.387Z,0
2023-01-25T18:27:41.440Z,0
2023-01-25T18:28:41.317Z,0
2023-01-25T18:29:40.789Z,0
2023-01-25T18:30:43.138Z,0
2023-01-25T18:31:42.235Z,0
2023-01-25T18:32:41.840Z,0
2023-01-25T18:33:41.385Z,0
2023-01-25T18:34:41.291Z,0
2023-01-25T18:35:42.696Z,0
2023-01-25T18:36:42.368Z,0
2023-01-25T18:37:41.504Z,0
2023-01-25T18:38:42.283Z,0
2023-01-25T18:39:41.146Z,0
2023-01-25T18:40:41.249Z,0
2023-01-25T18:41:42.837Z,0
2023-01-25T18:42:42.837Z,0
2023-01-25T18:43:41.525Z,0
2023-01-25T18:44:41.085Z,0
2023-01-25T18:45:41.719Z,0
2023-01-25T18:46:42.160Z,0
2023-01-25T18:47:41.514Z,0
2023-01-25T18:48:41.956Z,0
2023-01-25T18:49:41.198Z,0
2023-01-25T18:50:41.990Z,0
2023-01-25T18:52:14.228Z,0
2023-01-25T18:52:41.414Z,0
2023-01-25T18:53:41.172Z,0
2023-01-25T18:54:42.141Z,0
2023-01-25T18:55:41.912Z,0
2023-01-25T18:56:41.902Z,0
2023-01-25T18:57:41.162Z,0
2023-01-25T18:58:41.135Z,0
2023-01-25T18:59:41.010Z,0
2023-01-25T19:00:41.269Z,0
2023-01-25T19:01:42.542Z,0
2023-01-25T19:02:41.095Z,0
2023-01-25T19:03:41.373Z,0
2023-01-25T19:04:42.291Z,0
2023-01-25T19:05:42.928Z,0
2023-01-25T19:06:41.958Z,0
2023-01-25T19:07:41.504Z,0
2023-01-25T19:08:41.920Z,0
2023-01-25T19:09:42.180Z,0
2023-01-25T19:10:41.568Z,0
2023-01-25T19:11:41.421Z,0
2023-01-25T19:12:41.550Z,0
2023-01-25T19:13:41.675Z,0
2023-01-25T19:14:43.056Z,0
2023-01-25T19:15:42.141Z,0
2023-01-25T19:16:41.565Z,0
2023-01-25T19:17:41.646Z,0
2023-01-25T19:18:41.746Z,0
2023-01-25T19:19:41.512Z,0
2023-01-25T19:20:41.999Z,0
2023-01-25T19:21:41.516Z,0
2023-01-25T19:22:41.819Z,0
2023-01-25T19:23:41.644Z,0
2023-01-25T19:24:41.571Z,0
2023-01-25T19:25:42.292Z,0
2023-01-25T19:26:41.551Z,0
2023-01-25T19:27:41.416Z,0
2023-01-25T19:28:42.219Z,0
2023-01-25T19:29:41.709Z,0
2023-01-25T19:30:42.171Z,0
2023-01-25T19:31:42.314Z,0
2023-01-25T19:32:41.099Z,0
2023-01-25T19:33:42.093Z,0
2023-01-25T19:34:41.774Z,0
2023-01-25T19:35:41.212Z,0
2023-01-25T19:36:42.336Z,0
2023-01-25T19:37:41.496Z,0
2023-01-25T19:38:41.935Z,0
2023-01-25T19:39:41.807Z,0
2023-01-25T19:40:41.449Z,0
2023-01-25T19:41:41.326Z,0
2023-01-25T19:42:40.933Z,0
2023-01-25T19:43:41.595Z,0
2023-01-25T19:44:41.532Z,0
2023-01-25T19:45:41.170Z,0
2023-01-25T19:46:42.389Z,0
2023-01-25T19:47:41.241Z,0
2023-01-25T19:48:41.425Z,0
2023-01-25T19:49:42.245Z,0
2023-01-25T19:50:41.948Z,0
2023-01-25T19:51:41.654Z,0
2023-01-25T19:52:41.704Z,0
2023-01-25T19:53:41.533Z,0
2023-01-25T19:54:41.616Z,0
2023-01-25T19:55:41.838Z,0
2023-01-25T19:56:41.867Z,0
2023-01-25T19:57:41.793Z,0
2023-01-25T19:58:41.206Z,0
2023-01-25T19:59:41.364Z,0
2023-01-25T20:00:41.306Z,0
2023-01-25T20:01:41.755Z,0
2023-01-25T20:02:42.465Z,0
2023-01-25T20:03:41.663Z,0
2023-01-25T20:04:42.390Z,0
2023-01-25T20:05:42.197Z,0
2023-01-25T20:06:41.223Z,0
2023-01-25T20:07:43.414Z,0
2023-01-25T20:08:42.428Z,0
2023-01-25T20:09:41.311Z,0
2023-01-25T20:10:42.434Z,0
2023-01-25T20:11:41.611Z,0
2023-01-25T20:12:40.984Z,0
2023-01-25T20:13:41.821Z,0
2023-01-25T20:14:41.351Z,0
2023-01-25T20:15:41.669Z,0
2023-01-25T20:16:42.099Z,0
2023-01-25T20:17:41.242Z,0
2023-01-25T20:18:41.540Z,0
2023-01-25T20:19:41.559Z,0
2023-01-25T20:20:42.150Z,0
2023-01-25T20:21:42.618Z,0
2023-01-25T20:22:42.122Z,0
2023-01-25T20:23:42.038Z,0
2023-01-25T20:24:42.613Z,0
2023-01-25T20:25:41.373Z,0
2023-01-25T20:26:43.528Z,0
2023-01-25T20:27:41.975Z,0
2023-01-25T20:28:41.186Z,0
2023-01-25T20:29:42.153Z,0
2023-01-25T20:30:42.358Z,0
2023-01-25T20:31:41.966Z,0
2023-01-25T20:32:42.198Z,0
2023-01-25T20:33:41.701Z,0
2023-01-25T20:34:43.513Z,0
2023-01-25T20:35:41.411Z,0
2023-01-25T20:36:41.520Z,0
2023-01-25T20:37:42.097Z,0
2023-01-25T20:38:41.288Z,0
2023-01-25T20:39:41.371Z,0
2023-01-25T20:40:43.385Z,0
2023-01-25T20:41:41.539Z,0
2023-01-25T20:42:42.294Z,0
2023-01-25T20:43:41.371Z,0
2023-01-25T20:44:41.858Z,0
2023-01-25T20:45:41.652Z,0
2023-01-25T20:46:42.744Z,0
2023-01-25T20:47:42.007Z,0
2023-01-25T20:48:42.218Z,0
2023-01-25T20:49:41.689Z,0
2023-01-25T20:50:42.645Z,0
2023-01-25T20:51:41.669Z,0
2023-01-25T20:52:42.066Z,0
2023-01-25T20:53:41.501Z,0
2023-01-25T20:54:41.810Z,0
2023-01-25T20:55:41.947Z,0
2023-01-25T20:56:41.254Z,0
2023-01-25T20:57:41.671Z,0
2023-01-25T20:58:42.616Z,0
2023-01-25T20:59:41.524Z,0
2023-01-25T21:00:41.650Z,0
2023-01-25T21:01:42.250Z,0
2023-01-25T21:02:42.499Z,0
2023-01-25T21:03:41.347Z,0
2023-01-25T21:04:40.883Z,0
2023-01-25T21:05:41.544Z,0
2023-01-25T21:06:42.385Z,0
2023-01-25T21:07:41.315Z,0
2023-01-25T21:08:41.631Z,0
2023-01-25T21:09:44.224Z,0
2023-01-25T21:10:41.587Z,0
2023-01-25T21:11:42.385Z,0
2023-01-25T21:12:41.713Z,0
2023-01-25T21:13:41.577Z,0
2023-01-25T21:14:41.933Z,0
2023-01-25T21:15:41.482Z,0
2023-01-25T21:16:42.445Z,0
2023-01-25T21:17:41.839Z,0
2023-01-25T21:18:41.924Z,0
2023-01-25T21:19:41.811Z,0
2023-01-25T21:20:41.602Z,0
2023-01-25T21:21:41.690Z,0
2023-01-25T21:22:42.011Z,0
2023-01-25T21:23:41.058Z,0
2023-01-25T21:24:41.654Z,0
2023-01-25T21:25:43.348Z,0
2023-01-25T21:26:41.634Z,0
2023-01-25T21:27:42.199Z,0
2023-01-25T21:28:41.627Z,0
2023-01-25T21:29:41.602Z,0
2023-01-25T21:30:42.358Z,0
2023-01-25T21:31:41.923Z,0
2023-01-25T21:32:41.667Z,0
2023-01-25T21:33:41.469Z,0
2023-01-25T21:34:41.385Z,0
2023-01-25T21:35:41.625Z,0
2023-01-25T21:36:42.042Z,0
2023-01-25T21:37:41.630Z,0
2023-01-25T21:38:41.999Z,0
2023-01-25T21:39:41.655Z,0
2023-01-25T21:40:41.423Z,0
2023-01-25T21:41:41.384Z,0
2023-01-25T21:42:41.719Z,0
2023-01-25T21:43:41.778Z,0
2023-01-25T21:44:41.385Z,0
2023-01-25T21:45:42.056Z,0
2023-01-25T21:46:46.694Z,0
2023-01-25T21:47:41.456Z,0
2023-01-25T21:48:41.693Z,0
2023-01-25T21:49:42.376Z,0
2023-01-25T21:50:42.303Z,0
2023-01-25T21:51:42.189Z,0
2023-01-25T21:52:43.567Z,0
2023-01-25T21:53:41.239Z,0
2023-01-25T21:54:42.689Z,0
2023-01-25T21:55:41.914Z,0
2023-01-25T21:56:42.145Z,0
2023-01-25T21:57:42.228Z,0
2023-01-25T21:58:42.069Z,0
2023-01-25T21:59:41.737Z,0
2023-01-25T22:00:41.780Z,0
2023-01-25T22:01:41.862Z,0
2023-01-25T22:02:43.049Z,0
2023-01-25T22:03:41.799Z,0
2023-01-25T22:04:42.499Z,0
2023-01-25T22:05:41.504Z,0
2023-01-25T22:06:41.824Z,0
2023-01-25T22:07:42.195Z,0
2023-01-25T22:08:41.872Z,0
2023-01-25T22:09:42.107Z,0
2023-01-25T22:10:41.793Z,0
2023-01-25T22:11:41.524Z,0
2023-01-25T22:12:41.262Z,0
2023-01-25T22:13:41.736Z,0
2023-01-25T22:14:41.926Z,0
2023-01-25T22:15:42.214Z,0
2023-01-25T22:16:41.890Z,0
2023-01-25T22:17:41.484Z,0
2023-01-25T22:18:43.181Z,0
2023-01-25T22:19:42.038Z,0
2023-01-25T22:20:41.712Z,0
2023-01-25T22:21:41.757Z,0
2023-01-25T22:22:42.726Z,0
2023-01-25T22:23:42.131Z,0
2023-01-25T22:24:42.425Z,0
2023-01-25T22:25:42.677Z,0
2023-01-25T22:26:42.171Z,0
2023-01-25T22:27:41.546Z,0
2023-01-25T22:28:41.615Z,0
2023-01-25T22:29:41.853Z,0
2023-01-25T22:30:42.868Z,0
2023-01-25T22:31:43.149Z,0
2023-01-25T22:32:41.961Z,0
2023-01-25T22:33:42.118Z,0
2023-01-25T22:34:41.621Z,0
2023-01-25T22:35:41.801Z,0
2023-01-25T22:36:42.716Z,0
2023-01-25T22:37:41.920Z,0
2023-01-25T22:38:42.043Z,0
2023-01-25T22:39:43.015Z,0
2023-01-25T22:40:41.501Z,0
2023-01-25T22:41:42.219Z,0
2023-01-25T22:42:42.034Z,0
2023-01-25T22:43:41.786Z,0
2023-01-25T22:44:43.218Z,0
2023-01-25T22:45:41.816Z,0
2023-01-25T22:46:41.888Z,0
2023-01-25T22:47:41.776Z,0
2023-01-25T22:48:43.283Z,0
2023-01-25T22:49:41.820Z,0